CST,Max TemperatureF,Mean TemperatureF,Min TemperatureF,Max Dew PointF,MeanDew PointF,Min DewpointF,Max Humidity, Mean Humidity, Min Humidity, Max Sea Level PressureIn, Mean Sea Level PressureIn, Min Sea Level PressureIn, Max VisibilityMiles, Mean VisibilityMiles, Min VisibilityMiles, Max Wind SpeedMPH, Mean Wind SpeedMPH, Max Gust SpeedMPH,PrecipitationIn, CloudCover, Events, WindDirDegrees
2013-1-1,20,0,-20,18,2,-27,91,85,73,30.25,30.12,29.97,10,10,2,10,3,17,0.00,6,Snow,207
2013-1-2,25,18,11,22,14,8,95,88,80,30.11,29.96,29.89,10,7,1,17,7,20,0.00,8,Snow,229
2013-1-3,17,8,-2,13,5,-6,89,83,74,30.26,30.17,30.03,10,9,3,15,9,21,0.00,3,Snow,257
2013-1-4,27,15,3,17,11,1,92,80,63,30.09,30.04,29.97,10,10,10,16,8,22,0.00,0,,254
2013-1-5,20,8,-3,14,6,-7,92,86,73,30.06,29.95,29.84,10,10,7,13,3,18,0.00,1,,294
2013-1-6,19,10,3,15,9,-1,94,89,76,30.20,30.11,29.88,10,8,2,14,7,18,0.00,3,Snow,229
2013-1-7,33,24,14,24,20,14,96,79,67,29.94,29.87,29.82,10,10,10,13,8,20,0.00,0,,225
2013-1-8,32,18,6,26,18,4,95,88,79,29.94,29.83,29.70,10,9,3,20,4,25,0.00,3,,174
2013-1-9,32,28,23,27,21,18,87,76,67,30.31,30.15,29.88,10,10,7,26,14,33,0.00,0,,240
2013-1-10,36,32,28,32,26,21,99,75,55,30.20,30.00,29.65,10,8,2,16,13,23,0.04,3,Rain-Snow,152
2013-1-11,34,31,26,34,33,27,100,99,97,29.65,29.46,29.33,10,2,0,15,8,20,0.00,8,Fog-Rain-Snow,158
2013-1-12,26,13,0,26,3,-5,99,79,68,30.06,29.82,29.37,10,8,1,29,18,38,0.00,4,Snow,277
2013-1-13,5,1,-3,1,-4,-8,85,78,73,30.20,30.11,30.04,10,10,5,12,6,17,0.00,5,Snow,289
2013-1-14,9,2,-5,3,-2,-10,86,80,68,30.37,30.29,30.21,10,10,2,10,5,,0.00,3,Snow,222
2013-1-15,22,13,4,14,8,1,89,76,63,30.21,30.05,29.74,10,10,10,15,7,21,0.00,2,,189
2013-1-16,33,16,0,31,15,-7,97,77,52,30.25,29.87,29.62,10,8,1,20,12,26,0.00,5,Snow,285
2013-1-17,16,8,0,9,0,-9,79,68,55,30.36,30.32,30.22,10,10,5,12,6,18,0.00,5,Snow,265
2013-1-18,36,25,14,27,21,9,97,81,68,30.19,29.84,29.71,10,10,5,15,8,21,0.00,3,Snow,200
2013-1-19,36,17,-3,30,13,-9,97,80,58,30.25,29.89,29.67,10,10,3,33,10,44,0.00,3,Snow,283
2013-1-20,5,-1,-7,-2,-9,-17,76,71,63,30.38,30.30,30.25,10,10,3,16,11,24,0.00,3,,288
2013-1-21,-6,-11,-17,-15,-19,-22,78,69,61,30.33,30.28,30.25,10,10,5,18,11,23,0.00,0,,281
2013-1-22,3,-9,-20,-4,-15,-27,78,72,64,30.35,30.28,30.19,10,10,10,7,2,,0.00,3,,236
2013-1-23,8,0,-10,2,-7,-19,87,70,53,30.59,30.29,30.11,10,9,2,23,6,30,0.00,3,Snow,307
2013-1-24,12,1,-10,1,-11,-20,65,61,55,30.61,30.41,30.08,10,10,10,16,7,21,0.00,4,Snow,120
2013-1-25,15,5,-5,9,-1,-11,80,72,63,30.29,30.09,29.91,10,10,5,25,12,32,0.00,2,Snow,269
2013-1-26,20,6,-7,10,0,-12,80,71,61,30.30,30.18,30.03,10,10,10,16,4,21,0.00,2,,125
2013-1-27,31,24,17,29,21,10,96,80,65,30.03,29.88,29.77,10,7,2,10,6,,0.02,5,Snow,104
2013-1-28,33,30,28,32,31,28,100,99,96,29.84,29.78,29.63,3,1,0,12,2,,0.00,8,Fog,144
2013-1-29,32,28,23,32,27,18,100,93,80,29.79,29.66,29.54,10,7,1,16,5,22,0.00,7,Snow,320
2013-1-30,23,13,3,18,7,-3,86,80,75,29.79,29.74,29.71,10,9,3,20,14,26,0.00,8,Snow,311
2013-1-31,2,-5,-12,-3,-12,-19,79,73,67,30.26,30.04,29.79,10,8,2,21,14,30,0.00,5,Snow,293